createdAt,value
2022-10-03T00:02:07.406Z,13.97
2022-10-03T00:04:58.695Z,13.93
2022-10-03T00:07:51.987Z,13.92
2022-10-03T00:10:46.692Z,13.90
2022-10-03T00:13:29.011Z,13.89
2022-10-03T00:16:09.397Z,13.89
2022-10-03T00:18:41.692Z,13.88
2022-10-03T00:21:43.413Z,13.87
2022-10-03T00:24:30.422Z,13.88
2022-10-03T00:27:14.317Z,13.88
2022-10-03T00:29:54.769Z,13.88
2022-10-03T00:32:48.704Z,13.89
2022-10-03T00:36:02.672Z,13.87
2022-10-03T00:38:47.179Z,13.87
2022-10-03T00:41:41.550Z,13.84
2022-10-03T00:44:20.990Z,13.82
2022-10-03T00:46:55.852Z,13.81
2022-10-03T00:50:04.418Z,13.78
2022-10-03T00:52:42.844Z,13.78
2022-10-03T00:55:41.746Z,13.76
2022-10-03T00:58:39.210Z,13.74
2022-10-03T01:01:28.663Z,13.74
2022-10-03T01:04:10.918Z,13.73
2022-10-03T01:06:57.918Z,13.70
2022-10-03T01:09:57.045Z,13.68
2022-10-03T01:12:47.841Z,13.67
2022-10-03T01:15:37.527Z,13.65
2022-10-03T01:18:13.169Z,13.65
2022-10-03T01:20:54.990Z,13.61
2022-10-03T01:23:29.268Z,13.56
2022-10-03T01:26:14.406Z,13.48
2022-10-03T01:29:11.913Z,13.45
2022-10-03T01:31:42.206Z,13.44
2022-10-03T01:34:23.213Z,13.43
2022-10-03T01:36:52.715Z,13.44
2022-10-03T01:39:34.941Z,13.41
2022-10-03T01:42:11.374Z,13.37
2022-10-03T01:44:44.063Z,13.31
2022-10-03T01:47:36.518Z,13.27
2022-10-03T01:50:24.100Z,13.24
2022-10-03T01:53:15.106Z,13.24
2022-10-03T01:56:08.607Z,13.19
2022-10-03T01:58:35.002Z,13.15
2022-10-03T02:01:07.892Z,13.14
2022-10-03T02:03:57.079Z,13.13
2022-10-03T02:06:38.568Z,13.13
2022-10-03T02:09:28.501Z,13.13
2022-10-03T02:12:25.528Z,13.12
2022-10-03T02:15:26.144Z,13.11
2022-10-03T02:18:02.555Z,13.11
2022-10-03T02:20:43.223Z,13.12
2022-10-03T02:23:37.030Z,13.13
2022-10-03T02:26:49.923Z,13.13
2022-10-03T02:29:29.945Z,13.12
2022-10-03T02:32:09.615Z,13.12
2022-10-03T02:35:06.028Z,13.11
2022-10-03T02:37:32.582Z,13.11
2022-10-03T02:40:05.188Z,13.08
2022-10-03T02:42:53.386Z,13.03
2022-10-03T02:45:28.889Z,13.02
2022-10-03T02:48:08.440Z,13.00
2022-10-03T02:50:59.817Z,13.03
2022-10-03T02:54:07.590Z,13.00
2022-10-03T02:56:57.802Z,12.99
2022-10-03T02:59:41.659Z,12.99
2022-10-03T03:02:37.546Z,12.99
2022-10-03T03:05:26.345Z,12.99
2022-10-03T03:08:19.222Z,12.96
2022-10-03T03:11:08.379Z,12.98
2022-10-03T03:13:56.503Z,12.95
2022-10-03T03:16:33.510Z,12.93
2022-10-03T03:19:15.318Z,12.91
2022-10-03T03:21:50.302Z,12.91
2022-10-03T03:24:37.068Z,12.89
2022-10-03T03:27:31.132Z,12.87
2022-10-03T03:30:11.647Z,12.85
2022-10-03T03:32:56.912Z,12.82
2022-10-03T03:35:26.434Z,12.80
2022-10-03T03:38:05.346Z,12.77
2022-10-03T03:40:56.464Z,12.73
2022-10-03T03:43:55.479Z,12.71
2022-10-03T03:46:29.878Z,12.71
2022-10-03T03:49:29.847Z,12.69
2022-10-03T03:52:14.157Z,12.66
2022-10-03T03:54:59.540Z,12.63
2022-10-03T03:57:46.557Z,12.63
2022-10-03T04:00:31.321Z,12.64
2022-10-03T04:03:20.018Z,12.65
2022-10-03T04:06:03.385Z,12.64
2022-10-03T04:08:47.161Z,12.61
2022-10-03T04:11:13.794Z,12.59
2022-10-03T04:13:44.656Z,12.57
2022-10-03T04:17:01.226Z,12.54
2022-10-03T04:19:55.253Z,12.48
2022-10-03T04:22:29.999Z,12.48
2022-10-03T04:25:22.945Z,12.43
2022-10-03T04:28:26.737Z,12.44
2022-10-03T04:31:02.542Z,12.45
2022-10-03T04:33:56.121Z,12.43
2022-10-03T04:36:31.538Z,12.41
2022-10-03T04:39:10.603Z,12.36
2022-10-03T04:41:54.751Z,12.35
2022-10-03T04:44:51.566Z,12.33
2022-10-03T04:47:20.840Z,12.30
2022-10-03T04:49:56.429Z,12.28
2022-10-03T04:52:51.896Z,12.26
2022-10-03T04:55:28.401Z,12.24
2022-10-03T04:58:32.212Z,12.21
2022-10-03T05:01:06.490Z,12.20
2022-10-03T05:04:15.925Z,12.14
2022-10-03T05:07:14.445Z,12.14
2022-10-03T05:10:04.498Z,12.12
2022-10-03T05:13:02.555Z,12.14
2022-10-03T05:16:06.187Z,12.16
2022-10-03T05:18:43.632Z,12.20
2022-10-03T05:21:10.026Z,12.20
2022-10-03T05:24:15.508Z,12.20
2022-10-03T05:27:39.287Z,12.18
2022-10-03T05:30:16.799Z,12.21
2022-10-03T05:32:51.162Z,12.22
2022-10-03T05:35:46.014Z,12.22
2022-10-03T05:38:29.542Z,12.24
2022-10-03T05:41:17.521Z,12.24
2022-10-03T05:44:05.111Z,12.25
2022-10-03T05:46:46.544Z,12.27
2022-10-03T05:49:34.756Z,12.27
2022-10-03T05:52:04.315Z,12.28
2022-10-03T05:54:50.413Z,12.25
2022-10-03T05:57:35.651Z,12.26
2022-10-03T06:00:19.867Z,12.25
2022-10-03T06:03:05.430Z,12.24
2022-10-03T06:06:03.359Z,12.23
2022-10-03T06:08:51.390Z,12.24
2022-10-03T06:11:44.445Z,12.23
2022-10-03T06:14:23.858Z,12.21
2022-10-03T06:17:37.609Z,12.21
2022-10-03T06:20:46.145Z,12.16
2022-10-03T06:23:48.121Z,12.11
2022-10-03T06:26:29.646Z,12.09
2022-10-03T06:29:08.253Z,12.00
2022-10-03T06:32:02.762Z,11.95
2022-10-03T06:34:48.673Z,11.93
2022-10-03T06:37:41.273Z,11.94
2022-10-03T06:40:42.162Z,12.01
2022-10-03T06:43:34.017Z,12.01
2022-10-03T06:46:28.498Z,12.00
2022-10-03T06:49:18.904Z,12.06
2022-10-03T06:52:04.908Z,12.13
2022-10-03T06:55:13.518Z,12.25
2022-10-03T06:57:58.567Z,12.39
2022-10-03T07:00:34.774Z,12.53
2022-10-03T07:04:11.653Z,12.71
2022-10-03T07:06:56.585Z,13.00
2022-10-03T07:09:41.769Z,13.21
2022-10-03T07:12:39.231Z,13.43
2022-10-03T07:15:18.178Z,13.66
2022-10-03T07:18:26.456Z,13.93
2022-10-03T07:21:24.310Z,14.26
2022-10-03T07:24:10.287Z,14.59
2022-10-03T07:26:43.774Z,14.86
2022-10-03T07:29:28.493Z,15.11
2022-10-03T07:32:13.330Z,15.38
2022-10-03T07:35:07.443Z,15.62
2022-10-03T07:38:24.894Z,15.88
2022-10-03T07:41:22.025Z,16.15
2022-10-03T07:44:01.705Z,16.39
2022-10-03T07:46:53.605Z,16.55
2022-10-03T07:50:04.270Z,16.66
2022-10-03T07:52:38.091Z,16.74
2022-10-03T07:55:19.373Z,16.80
2022-10-03T07:58:07.444Z,16.81
2022-10-03T08:01:03.761Z,16.87
2022-10-03T08:04:04.128Z,16.94
2022-10-03T08:06:44.831Z,17.04
2022-10-03T08:09:31.584Z,17.14
2022-10-03T08:12:16.281Z,17.30
2022-10-03T08:14:52.992Z,17.42
2022-10-03T08:17:51.055Z,17.55
2022-10-03T08:20:36.289Z,17.78
2022-10-03T08:23:41.867Z,18.02
2022-10-03T08:26:47.718Z,18.20
2022-10-03T08:29:33.044Z,18.27
2022-10-03T08:32:24.221Z,18.30
2022-10-03T08:35:09.747Z,18.36
2022-10-03T08:38:10.339Z,18.37
2022-10-03T08:40:53.825Z,18.48
2022-10-03T08:43:57.821Z,18.59
2022-10-03T08:46:51.679Z,18.67
2022-10-03T08:49:51.747Z,18.78
2022-10-03T08:52:44.049Z,18.90
2022-10-03T08:55:19.769Z,19.05
2022-10-03T08:58:11.502Z,19.12
2022-10-03T09:01:22.363Z,19.23
2022-10-03T09:03:58.165Z,19.35
2022-10-03T09:07:16.681Z,19.46
2022-10-03T09:09:58.930Z,19.63
2022-10-03T09:12:34.455Z,19.74
2022-10-03T09:15:14.200Z,19.88
2022-10-03T09:18:04.331Z,20.04
2022-10-03T09:20:36.457Z,20.17
2022-10-03T09:23:34.794Z,20.21
2022-10-03T09:26:35.706Z,20.24
2022-10-03T09:29:33.199Z,20.30
2022-10-03T09:32:18.119Z,20.36
2022-10-03T09:35:07.080Z,20.39
2022-10-03T09:37:50.524Z,20.49
2022-10-03T09:40:56.308Z,20.58
2022-10-03T09:43:50.458Z,20.76
2022-10-03T09:46:41.815Z,20.87
2022-10-03T09:49:23.975Z,20.96
2022-10-03T09:51:59.301Z,21.01
2022-10-03T09:54:28.773Z,21.09
2022-10-03T09:57:16.114Z,21.23
2022-10-03T09:59:58.210Z,21.33
2022-10-03T10:02:52.398Z,21.38
2022-10-03T10:05:49.798Z,21.40
2022-10-03T10:08:53.866Z,21.50
2022-10-03T10:11:54.194Z,21.65
2022-10-03T10:14:42.191Z,21.77
2022-10-03T10:17:46.305Z,21.88
2022-10-03T10:20:45.132Z,21.96
2022-10-03T10:23:24.683Z,22.02
2022-10-03T10:26:01.781Z,22.10
2022-10-03T10:28:28.213Z,22.09
2022-10-03T10:31:32.970Z,22.09
2022-10-03T10:34:19.198Z,22.12
2022-10-03T10:37:10.349Z,22.15
2022-10-03T10:39:53.065Z,22.20
2022-10-03T10:42:25.545Z,22.35
2022-10-03T10:45:15.557Z,22.51
2022-10-03T10:48:03.902Z,22.71
2022-10-03T10:51:07.883Z,22.89
2022-10-03T10:54:12.626Z,23.01
2022-10-03T10:56:57.325Z,23.05
2022-10-03T10:59:42.050Z,23.01
2022-10-03T11:02:24.026Z,23.03
2022-10-03T11:05:29.775Z,23.01
2022-10-03T11:08:21.024Z,22.99
2022-10-03T11:11:21.402Z,22.94
2022-10-03T11:14:17.262Z,22.89
2022-10-03T11:17:23.911Z,22.82
2022-10-03T11:20:27.509Z,22.79
2022-10-03T11:23:08.965Z,22.80
2022-10-03T11:25:54.244Z,22.79
2022-10-03T11:28:58.276Z,22.87
2022-10-03T11:31:46.795Z,22.98
2022-10-03T11:34:42.487Z,23.09
2022-10-03T11:37:50.820Z,23.21
2022-10-03T11:40:39.630Z,23.28
2022-10-03T11:43:46.274Z,23.26
2022-10-03T11:46:39.379Z,23.22
2022-10-03T11:49:38.926Z,23.13
2022-10-03T11:52:25.635Z,23.07
2022-10-03T11:55:01.625Z,23.00
2022-10-03T11:57:31.559Z,22.96
2022-10-03T12:00:19.896Z,22.91
2022-10-03T12:03:08.061Z,22.90
2022-10-03T12:06:31.239Z,22.89
2022-10-03T12:09:28.978Z,22.85
2022-10-03T12:12:28.075Z,22.85
2022-10-03T12:15:15.389Z,22.89
2022-10-03T12:17:51.073Z,22.90
2022-10-03T12:20:28.856Z,22.95
2022-10-03T12:23:13.013Z,23.00
2022-10-03T12:25:43.325Z,23.02
2022-10-03T12:28:36.022Z,22.99
2022-10-03T12:31:18.987Z,22.94
2022-10-03T12:34:12.505Z,22.90
2022-10-03T12:36:51.112Z,22.90
2022-10-03T12:39:45.534Z,22.90
2022-10-03T12:42:30.797Z,22.93
2022-10-03T12:45:19.174Z,22.98
2022-10-03T12:47:56.355Z,23.00
2022-10-03T12:50:43.110Z,23.05
2022-10-03T12:53:15.853Z,23.13
2022-10-03T12:55:51.496Z,23.24
2022-10-03T12:58:36.929Z,23.33
2022-10-03T13:01:09.353Z,23.33
2022-10-03T13:03:59.188Z,23.29
2022-10-03T13:07:03.006Z,23.30
2022-10-03T13:09:36.343Z,23.34
2022-10-03T13:12:22.041Z,23.33
2022-10-03T13:15:18.272Z,23.23
2022-10-03T13:18:04.170Z,23.14
2022-10-03T13:20:37.096Z,23.12
2022-10-03T13:23:14.386Z,23.10
2022-10-03T13:26:07.514Z,23.09
2022-10-03T13:28:59.740Z,23.13
2022-10-03T13:31:32.616Z,23.16
2022-10-03T13:34:10.385Z,23.12
2022-10-03T13:36:44.827Z,23.06
2022-10-03T13:39:25.862Z,23.03
2022-10-03T13:42:22.468Z,22.98
2022-10-03T13:44:55.555Z,22.94
2022-10-03T13:47:46.870Z,22.92
2022-10-03T13:50:19.053Z,22.94
2022-10-03T13:52:57.724Z,22.93
2022-10-03T13:55:42.227Z,22.89
2022-10-03T13:58:33.654Z,22.88
2022-10-03T14:01:28.360Z,22.87
2022-10-03T14:04:13.633Z,22.86
2022-10-03T14:06:48.399Z,22.86
2022-10-03T14:09:32.543Z,22.87
2022-10-03T14:12:13.636Z,22.88
2022-10-03T14:15:10.913Z,22.88
2022-10-03T14:17:51.657Z,22.88
2022-10-03T14:20:41.270Z,22.86
2022-10-03T14:23:24.310Z,22.82
2022-10-03T14:26:08.847Z,22.76
2022-10-03T14:28:47.260Z,22.73
2022-10-03T14:31:31.889Z,22.72
2022-10-03T14:34:44.008Z,22.69
2022-10-03T14:37:28.358Z,22.68
2022-10-03T14:40:17.664Z,22.64
2022-10-03T14:43:21.838Z,22.62
2022-10-03T14:45:52.095Z,22.59
2022-10-03T14:48:37.942Z,22.57
2022-10-03T14:51:20.153Z,22.57
2022-10-03T14:54:02.513Z,22.57
2022-10-03T14:56:41.915Z,22.57
2022-10-03T14:59:33.436Z,22.52
2022-10-03T15:02:20.462Z,22.52
2022-10-03T15:04:47.821Z,22.49
2022-10-03T15:07:15.095Z,22.46
2022-10-03T15:09:50.414Z,22.45
2022-10-03T15:12:23.869Z,22.45
2022-10-03T15:15:18.183Z,22.44
2022-10-03T15:17:53.649Z,22.42
2022-10-03T15:20:26.860Z,22.38
2022-10-03T15:22:56.954Z,22.35
2022-10-03T15:25:30.633Z,22.32
2022-10-03T15:28:02.738Z,22.28
2022-10-03T15:30:33.710Z,22.25
2022-10-03T15:33:22.945Z,22.20
2022-10-03T15:35:55.256Z,22.19
2022-10-03T15:38:27.165Z,22.14
2022-10-03T15:41:13.387Z,22.12
2022-10-03T15:44:02.418Z,22.08
2022-10-03T15:46:52.625Z,22.09
2022-10-03T15:49:37.459Z,22.08
2022-10-03T15:52:33.111Z,22.07
2022-10-03T15:55:12.638Z,22.06
2022-10-03T15:57:46.043Z,22.03
2022-10-03T16:00:28.910Z,22.00
2022-10-03T16:03:29.306Z,21.96
2022-10-03T16:06:07.574Z,21.95
2022-10-03T16:08:47.474Z,21.94
2022-10-03T16:11:21.282Z,21.90
2022-10-03T16:14:09.065Z,21.88
2022-10-03T16:16:54.794Z,21.86
2022-10-03T16:19:33.765Z,21.84
2022-10-03T16:22:06.230Z,21.81
2022-10-03T16:25:16.193Z,21.76
2022-10-03T16:27:53.751Z,21.74
2022-10-03T16:30:29.891Z,21.69
2022-10-03T16:33:20.067Z,21.65
2022-10-03T16:35:54.485Z,21.63
2022-10-03T16:38:44.801Z,21.59
2022-10-03T16:41:38.052Z,21.51
2022-10-03T16:44:22.966Z,21.42
2022-10-03T16:46:52.510Z,21.37
2022-10-03T16:49:43.767Z,21.30
2022-10-03T16:52:16.702Z,21.21
2022-10-03T16:54:47.036Z,21.16
2022-10-03T16:57:21.456Z,21.10
2022-10-03T16:59:51.990Z,21.06
2022-10-03T17:02:27.213Z,21.00
2022-10-03T17:05:07.845Z,20.94
2022-10-03T17:07:42.693Z,20.89
2022-10-03T17:10:34.757Z,20.75
2022-10-03T17:13:10.849Z,20.66
2022-10-03T17:15:46.057Z,20.56
2022-10-03T17:18:25.421Z,20.48
2022-10-03T17:21:15.363Z,20.40
2022-10-03T17:24:04.254Z,20.31
2022-10-03T17:26:39.234Z,20.25
2022-10-03T17:29:23.971Z,20.16
2022-10-03T17:32:05.884Z,20.09
2022-10-03T17:34:40.575Z,20.03
2022-10-03T17:37:39.131Z,19.95
2022-10-03T17:40:59.986Z,19.88
2022-10-03T17:43:43.101Z,19.81
2022-10-03T17:46:28.304Z,19.74
2022-10-03T17:49:18.158Z,19.68
2022-10-03T17:51:48.115Z,19.62
2022-10-03T17:54:30.694Z,19.56
2022-10-03T17:57:12.473Z,19.49
2022-10-03T17:59:52.710Z,19.42
2022-10-03T18:02:37.275Z,19.35
2022-10-03T18:05:18.868Z,19.33
2022-10-03T18:07:46.883Z,19.28
2022-10-03T18:10:24.306Z,19.22
2022-10-03T18:12:54.055Z,19.17
2022-10-03T18:15:58.095Z,19.09
2022-10-03T18:18:56.399Z,19.05
2022-10-03T18:21:46.995Z,19.01
2022-10-03T18:24:40.470Z,18.98
2022-10-03T18:27:34.362Z,18.95
2022-10-03T18:30:16.789Z,18.90
2022-10-03T18:32:45.568Z,18.87
2022-10-03T18:35:23.553Z,18.82
2022-10-03T18:37:55.312Z,18.79
2022-10-03T18:40:32.845Z,18.74
2022-10-03T18:43:00.899Z,18.71
2022-10-03T18:45:32.687Z,18.66
2022-10-03T18:48:25.295Z,18.62
2022-10-03T18:51:09.348Z,18.59
2022-10-03T18:53:44.874Z,18.56
2022-10-03T18:56:17.156Z,18.54
2022-10-03T18:58:59.231Z,18.50
2022-10-03T19:01:33.753Z,18.47
2022-10-03T19:04:16.281Z,18.45
2022-10-03T19:06:46.594Z,18.41
2022-10-03T19:09:25.023Z,18.37
2022-10-03T19:12:22.427Z,18.32
2022-10-03T19:15:01.002Z,18.29
2022-10-03T19:17:53.947Z,18.25
2022-10-03T19:20:26.773Z,18.22
2022-10-03T19:23:18.815Z,18.15
2022-10-03T19:25:52.165Z,18.12
2022-10-03T19:28:27.491Z,18.08
2022-10-03T19:31:03.102Z,18.04
2022-10-03T19:33:36.082Z,18.03
2022-10-03T19:36:05.655Z,17.98
2022-10-03T19:38:43.406Z,17.93
2022-10-03T19:41:25.668Z,17.89
2022-10-03T19:43:54.546Z,17.83
2022-10-03T19:46:29.978Z,17.78
2022-10-03T19:49:02.957Z,17.74
2022-10-03T19:51:29.544Z,17.74
2022-10-03T19:53:57.625Z,17.69
2022-10-03T19:56:26.941Z,17.64
2022-10-03T19:59:16.574Z,17.59
2022-10-03T20:01:49.141Z,17.56
2022-10-03T20:04:31.914Z,17.55
2022-10-03T20:06:58.758Z,17.55
2022-10-03T20:09:29.421Z,17.55
2022-10-03T20:11:59.810Z,17.58
2022-10-03T20:14:34.569Z,17.60
2022-10-03T20:17:14.679Z,17.59
2022-10-03T20:19:54.816Z,17.58
2022-10-03T20:22:26.521Z,17.59
2022-10-03T20:24:55.342Z,17.61
2022-10-03T20:27:36.883Z,17.63
2022-10-03T20:30:21.577Z,17.65
2022-10-03T20:32:49.524Z,17.67
2022-10-03T20:35:21.997Z,17.66
2022-10-03T20:38:03.446Z,17.65
2022-10-03T20:40:38.062Z,17.65
2022-10-03T20:43:23.092Z,17.67
2022-10-03T20:46:13.565Z,17.66
2022-10-03T20:48:52.728Z,17.67
2022-10-03T20:51:23.275Z,17.65
2022-10-03T20:53:54.841Z,17.65
2022-10-03T20:56:33.609Z,17.64
2022-10-03T20:59:05.656Z,17.65
2022-10-03T21:01:35.195Z,17.66
2022-10-03T21:04:30.341Z,17.66
2022-10-03T21:07:04.662Z,17.69
2022-10-03T21:09:42.930Z,17.69
2022-10-03T21:12:20.618Z,17.69
2022-10-03T21:15:33.660Z,17.69
2022-10-03T21:18:01.692Z,17.69
2022-10-03T21:20:36.230Z,17.69
2022-10-03T21:23:12.899Z,17.69
2022-10-03T21:25:43.746Z,17.68
2022-10-03T21:28:25.397Z,17.67
2022-10-03T21:31:27.983Z,17.67
2022-10-03T21:33:58.324Z,17.69
2022-10-03T21:36:33.484Z,17.67
2022-10-03T21:39:15.247Z,17.66
2022-10-03T21:41:52.636Z,17.66
2022-10-03T21:44:43.662Z,17.65
2022-10-03T21:47:44.129Z,17.63
2022-10-03T21:50:19.229Z,17.62
2022-10-03T21:53:01.029Z,17.62
2022-10-03T21:55:53.448Z,17.59
2022-10-03T21:58:33.231Z,17.55
2022-10-03T22:01:13.190Z,17.50
2022-10-03T22:03:57.899Z,17.46
2022-10-03T22:06:36.702Z,17.39
2022-10-03T22:09:11.911Z,17.33
2022-10-03T22:11:47.373Z,17.29
2022-10-03T22:14:32.679Z,17.27
2022-10-03T22:17:08.445Z,17.25
2022-10-03T22:19:43.782Z,17.20
2022-10-03T22:22:19.265Z,17.18
2022-10-03T22:25:17.403Z,17.19
2022-10-03T22:27:56.594Z,17.13
2022-10-03T22:30:23.501Z,17.09
2022-10-03T22:32:59.311Z,17.07
2022-10-03T22:35:31.506Z,17.07
2022-10-03T22:37:58.102Z,17.05
2022-10-03T22:40:25.895Z,17.02
2022-10-03T22:42:56.450Z,16.98
2022-10-03T22:45:29.566Z,16.95
2022-10-03T22:47:59.543Z,16.94
2022-10-03T22:50:31.534Z,16.93
2022-10-03T22:52:59.933Z,16.93
2022-10-03T22:55:28.079Z,16.94
2022-10-03T22:57:55.929Z,16.93
2022-10-03T23:00:28.577Z,16.91
2022-10-03T23:03:22.649Z,16.88
2022-10-03T23:06:11.035Z,16.85
2022-10-03T23:09:19.625Z,16.82
2022-10-03T23:11:48.841Z,16.80
2022-10-03T23:14:23.452Z,16.79
2022-10-03T23:17:00.628Z,16.77
2022-10-03T23:19:48.882Z,16.75
2022-10-03T23:22:19.453Z,16.76
2022-10-03T23:24:53.958Z,16.73
2022-10-03T23:27:38.654Z,16.72
2022-10-03T23:30:11.292Z,16.71
2022-10-03T23:32:47.022Z,16.68
2022-10-03T23:35:17.279Z,16.65
2022-10-03T23:37:48.343Z,16.65
2022-10-03T23:40:32.938Z,16.64
2022-10-03T23:43:29.310Z,16.64
2022-10-03T23:46:05.269Z,16.63
2022-10-03T23:48:42.286Z,16.63
2022-10-03T23:51:12.935Z,16.63
2022-10-03T23:53:51.358Z,16.62
2022-10-03T23:56:38.152Z,16.60
2022-10-03T23:59:05.083Z,16.61
